Time;durP1;ratioP1;P1;durP2;ratioP2;P2;SDS_P1;SDS_P2;PMS_P1;PMS_P2;Temp;Humidity;BMP_temperature;BMP_pressure;BME280_temperature;BME280_humidity;BME280_pressure;Samples;Min_cycle;Max_cycle;Signal;HPM_P1;HPM_P2
2023/01/24 00:00:38;;;;;;;14.23;9.50;;;5.90;99.90;;;;;;5075520;28;20511;-64
2023/01/24 00:03:04;;;;;;;15.80;10.70;;;5.90;99.90;;;;;;5059794;28;20209;-64
2023/01/24 00:05:29;;;;;;;15.30;11.43;;;5.90;99.90;;;;;;5080401;28;20277;-64
2023/01/24 00:07:55;;;;;;;15.43;9.77;;;5.90;99.90;;;;;;5078626;28;20213;-64
2023/01/24 00:10:22;;;;;;;17.17;10.73;;;5.90;99.90;;;;;;5074033;28;20183;-64
2023/01/24 00:12:47;;;;;;;14.33;10.70;;;5.90;99.90;;;;;;5077935;28;20171;-64
2023/01/24 00:15:13;;;;;;;18.20;10.50;;;5.80;99.90;;;;;;5073812;28;20440;-64
2023/01/24 00:17:38;;;;;;;13.67;10.20;;;5.80;99.90;;;;;;5075197;28;20194;-64
2023/01/24 00:20:05;;;;;;;15.00;11.00;;;5.90;99.90;;;;;;5077020;28;20182;-64
2023/01/24 00:22:31;;;;;;;15.33;10.90;;;5.80;99.90;;;;;;5058409;28;20182;-64
2023/01/24 00:24:56;;;;;;;16.20;10.90;;;5.80;99.90;;;;;;5076030;28;20412;-64
2023/01/24 00:27:22;;;;;;;14.83;9.63;;;5.80;99.90;;;;;;5056822;28;20456;-64
2023/01/24 00:29:48;;;;;;;13.23;9.73;;;5.80;99.90;;;;;;5073149;28;20179;-64
2023/01/24 00:32:13;;;;;;;14.13;9.50;;;5.80;99.90;;;;;;5075770;28;20216;-64
2023/01/24 00:34:39;;;;;;;16.37;10.13;;;5.80;99.90;;;;;;5061050;28;20174;-64
2023/01/24 00:37:04;;;;;;;14.37;10.67;;;5.80;99.90;;;;;;5074745;28;20738;-64
2023/01/24 00:39:30;;;;;;;14.60;9.60;;;5.80;99.90;;;;;;5075241;28;20667;-64
2023/01/24 00:41:55;;;;;;;15.83;10.67;;;5.80;99.90;;;;;;5076860;28;20181;-64
2023/01/24 00:44:21;;;;;;;16.17;9.40;;;5.90;99.90;;;;;;5071284;28;20175;-64
2023/01/24 00:46:46;;;;;;;16.60;10.30;;;5.90;99.90;;;;;;5076175;28;20205;-64
2023/01/24 00:49:12;;;;;;;15.37;10.10;;;5.80;99.90;;;;;;5075251;28;20268;-64
2023/01/24 00:51:37;;;;;;;15.23;10.77;;;5.80;99.90;;;;;;5076216;28;20193;-64
2023/01/24 00:54:03;;;;;;;16.73;10.20;;;5.80;99.90;;;;;;5077109;28;20205;-64
2023/01/24 00:56:29;;;;;;;13.17;9.37;;;5.80;99.90;;;;;;5078711;28;20595;-64
2023/01/24 00:58:54;;;;;;;16.03;9.97;;;5.80;99.90;;;;;;5075307;28;20252;-63
2023/01/24 01:01:20;;;;;;;15.43;10.00;;;5.80;99.90;;;;;;5072539;28;20175;-64
2023/01/24 01:03:46;;;;;;;14.80;10.07;;;5.80;99.90;;;;;;5075188;28;20613;-64
2023/01/24 01:06:14;;;;;;;14.23;9.17;;;5.80;99.90;;;;;;5075412;28;20439;-64
2023/01/24 01:08:40;;;;;;;15.40;10.37;;;5.80;99.90;;;;;;5072864;28;20187;-64
2023/01/24 01:11:06;;;;;;;14.30;9.60;;;5.80;99.90;;;;;;5075286;28;20791;-64
2023/01/24 01:13:32;;;;;;;17.10;10.37;;;5.80;99.90;;;;;;5076487;28;20206;-64
2023/01/24 01:16:18;;;;;;;14.10;10.67;;;5.80;99.90;;;;;;5071122;28;20491;-64
2023/01/24 01:18:47;;;;;;;15.47;9.73;;;5.80;99.90;;;;;;5058737;28;20504;-64
2023/01/24 01:21:16;;;;;;;14.57;9.73;;;5.80;99.90;;;;;;5076623;28;21022;-64
2023/01/24 01:23:41;;;;;;;15.63;9.60;;;5.80;99.90;;;;;;5076307;28;20506;-64
2023/01/24 01:26:09;;;;;;;15.40;10.00;;;5.80;99.90;;;;;;5059156;28;20471;-64
2023/01/24 01:28:35;;;;;;;12.90;8.73;;;5.80;99.90;;;;;;5071455;28;20595;-64
2023/01/24 01:31:01;;;;;;;15.30;8.90;;;5.70;99.90;;;;;;5076514;28;20419;-64
2023/01/24 01:33:26;;;;;;;14.30;9.00;;;5.70;99.90;;;;;;5076529;28;20421;-64
2023/01/24 01:35:52;;;;;;;13.77;9.30;;;5.70;99.90;;;;;;5070607;28;20233;-64
2023/01/24 01:38:19;;;;;;;16.10;9.90;;;5.70;99.90;;;;;;5071118;28;20201;-64
2023/01/24 01:40:45;;;;;;;15.00;9.83;;;5.70;99.90;;;;;;5073519;28;20655;-64
2023/01/24 01:43:14;;;;;;;13.83;8.70;;;5.70;99.90;;;;;;5075780;28;20413;-64
2023/01/24 01:45:48;;;;;;;13.33;9.13;;;5.70;99.90;;;;;;5066087;28;20854;-63
2023/01/24 01:48:36;;;;;;;18.73;9.50;;;5.70;99.90;;;;;;5075310;28;20421;-64
2023/01/24 01:51:01;;;;;;;14.13;9.20;;;5.70;99.90;;;;;;5076238;28;20534;-64
2023/01/24 01:53:31;;;;;;;14.87;9.93;;;5.70;99.90;;;;;;5077356;28;20499;-64
2023/01/24 01:56:03;;;;;;;13.43;9.30;;;5.60;99.90;;;;;;5074640;28;20253;-64
2023/01/24 01:58:29;;;;;;;14.10;9.10;;;5.60;99.90;;;;;;5070829;28;20417;-64
2023/01/24 02:00:55;;;;;;;14.63;9.00;;;5.60;99.90;;;;;;5077214;28;20443;-64
2023/01/24 02:03:38;;;;;;;14.60;9.83;;;5.60;99.90;;;;;;5054549;28;20441;-64
2023/01/24 02:06:06;;;;;;;15.23;8.77;;;5.70;99.90;;;;;;5068504;28;20238;-64
2023/01/24 02:08:33;;;;;;;13.33;9.43;;;5.70;99.90;;;;;;5077852;28;20426;-64
2023/01/24 02:13:45;;;;;;;16.17;9.60;;;5.60;99.90;;;;;;5070451;28;20971;-64
2023/01/24 02:16:12;;;;;;;12.90;8.90;;;5.60;99.90;;;;;;5073281;28;20551;-64
2023/01/24 02:18:40;;;;;;;12.77;8.63;;;5.70;99.90;;;;;;5079991;28;20428;-64
2023/01/24 02:21:11;;;;;;;13.60;9.10;;;5.70;99.90;;;;;;5079646;28;20417;-64
2023/01/24 02:23:48;;;;;;;14.03;10.23;;;5.70;99.90;;;;;;5078015;28;20431;-64
2023/01/24 02:26:15;;;;;;;15.90;10.47;;;5.70;99.90;;;;;;5074463;28;20443;-64
2023/01/24 02:28:57;;;;;;;14.43;9.70;;;5.70;99.90;;;;;;5075806;28;21510;-64
2023/01/24 02:31:23;;;;;;;13.47;9.20;;;5.70;99.90;;;;;;5073069;28;21744;-64
2023/01/24 02:33:49;;;;;;;17.27;10.10;;;5.60;99.90;;;;;;5059103;28;20482;-65
2023/01/24 02:36:20;;;;;;;13.97;9.10;;;5.60;99.90;;;;;;5073938;28;20478;-64
2023/01/24 02:38:52;;;;;;;14.90;10.03;;;5.60;99.90;;;;;;5077818;28;20171;-64
2023/01/24 02:41:21;;;;;;;13.07;9.20;;;5.60;99.90;;;;;;5079590;28;20424;-64
2023/01/24 02:43:49;;;;;;;12.20;8.80;;;5.60;99.90;;;;;;5070847;28;20436;-64
2023/01/24 02:46:15;;;;;;;15.07;10.10;;;5.70;99.90;;;;;;5072727;28;20460;-64
2023/01/24 02:48:40;;;;;;;15.63;9.13;;;5.70;99.90;;;;;;5063780;28;20611;-64
2023/01/24 02:53:50;;;;;;;17.53;10.33;;;5.70;99.90;;;;;;5076161;28;20288;-64
2023/01/24 02:59:00;;;;;;;14.30;9.83;;;5.60;99.90;;;;;;5074213;28;20405;-64
2023/01/24 03:01:26;;;;;;;15.53;10.03;;;5.70;99.90;;;;;;5074571;28;21422;-64
2023/01/24 03:03:53;;;;;;;15.20;9.87;;;5.70;99.90;;;;;;5075321;28;20648;-64
2023/01/24 03:06:19;;;;;;;14.73;10.13;;;5.70;99.90;;;;;;5073681;28;20198;-64
2023/01/24 03:08:45;;;;;;;14.30;9.53;;;5.70;99.90;;;;;;5074919;28;20953;-63
2023/01/24 03:11:11;;;;;;;13.37;9.53;;;5.70;99.90;;;;;;5078850;28;20187;-64
2023/01/24 03:35:35;;;;;;;15.90;10.73;;;5.80;99.90;;;;;;5077249;28;20459;-64
2023/01/24 03:40:45;;;;;;;13.17;9.13;;;5.70;99.90;;;;;;5075447;28;21453;-64
2023/01/24 03:43:11;;;;;;;14.50;9.53;;;5.70;99.90;;;;;;5074841;28;20419;-64
2023/01/24 03:45:39;;;;;;;13.30;9.27;;;5.70;99.90;;;;;;5074763;28;20178;-64
2023/01/24 03:48:15;;;;;;;14.50;10.40;;;5.70;99.90;;;;;;5058549;28;20185;-64
2023/01/24 03:53:29;;;;;;;18.70;10.67;;;5.70;99.90;;;;;;5078157;28;20458;-64
2023/01/24 03:56:01;;;;;;;14.27;9.53;;;5.80;99.90;;;;;;5076456;28;20472;-64
2023/01/24 03:58:28;;;;;;;16.70;10.37;;;5.80;99.90;;;;;;5075302;28;20414;-64
2023/01/24 04:00:54;;;;;;;13.83;9.80;;;5.70;99.90;;;;;;5060060;28;20432;-63
2023/01/24 04:03:20;;;;;;;16.23;10.90;;;5.70;99.90;;;;;;5076366;28;20483;-63
2023/01/24 04:05:47;;;;;;;16.90;9.77;;;5.70;99.90;;;;;;5078155;28;20448;-63
2023/01/24 04:08:13;;;;;;;14.43;10.33;;;5.80;99.90;;;;;;5075321;28;20174;-63
2023/01/24 04:10:38;;;;;;;14.13;9.23;;;5.80;99.90;;;;;;5075075;28;20467;-64
2023/01/24 04:13:04;;;;;;;15.30;9.83;;;5.80;99.90;;;;;;5073664;28;20425;-63
2023/01/24 04:15:32;;;;;;;16.03;9.63;;;5.80;99.90;;;;;;5076517;28;20235;-63
2023/01/24 04:18:00;;;;;;;15.73;9.87;;;5.80;99.90;;;;;;5076775;28;20925;-63
2023/01/24 04:20:28;;;;;;;16.20;10.83;;;5.70;99.90;;;;;;5076540;28;20508;-63
2023/01/24 04:22:53;;;;;;;17.10;10.30;;;5.70;99.90;;;;;;5077313;28;20422;-63
2023/01/24 04:25:19;;;;;;;14.97;10.43;;;5.80;99.90;;;;;;5072030;28;20506;-63
2023/01/24 04:27:45;;;;;;;15.23;10.07;;;5.80;99.90;;;;;;5074672;28;20221;-63
2023/01/24 04:30:12;;;;;;;17.50;10.83;;;5.80;99.90;;;;;;5073177;28;20186;-63
2023/01/24 04:32:38;;;;;;;15.63;10.97;;;5.70;99.90;;;;;;5059322;28;20532;-63
2023/01/24 04:35:05;;;;;;;17.60;11.07;;;5.70;99.90;;;;;;5070259;28;20512;-63
2023/01/24 04:37:32;;;;;;;15.23;9.70;;;5.70;99.90;;;;;;5078776;28;20213;-63
2023/01/24 04:39:57;;;;;;;18.97;10.30;;;5.70;99.90;;;;;;5055382;28;20475;-63
2023/01/24 04:42:23;;;;;;;18.90;10.97;;;5.70;99.90;;;;;;5076585;28;21237;-64
2023/01/24 04:44:49;;;;;;;13.70;10.33;;;5.70;99.90;;;;;;5059269;28;20222;-64
2023/01/24 04:47:14;;;;;;;13.10;9.90;;;5.70;99.90;;;;;;5076853;28;20218;-63
2023/01/24 04:49:41;;;;;;;15.50;10.17;;;5.70;99.90;;;;;;5073186;28;20183;-63
2023/01/24 04:52:10;;;;;;;17.27;10.50;;;5.70;99.90;;;;;;5075633;28;20212;-64
2023/01/24 04:54:35;;;;;;;15.63;9.90;;;5.70;99.90;;;;;;5075568;28;20537;-63
2023/01/24 04:57:01;;;;;;;14.20;10.20;;;5.70;99.90;;;;;;5075239;28;20952;-63
2023/01/24 04:59:27;;;;;;;17.97;10.77;;;5.80;99.90;;;;;;5075982;28;20684;-63
2023/01/24 05:01:52;;;;;;;22.80;11.00;;;5.80;99.90;;;;;;5055070;28;20194;-64
2023/01/24 05:04:18;;;;;;;14.07;9.70;;;5.80;99.90;;;;;;5075803;28;20178;-63
2023/01/24 05:06:43;;;;;;;16.07;10.90;;;5.70;99.90;;;;;;5073879;28;20202;-63
2023/01/24 05:09:09;;;;;;;17.70;11.73;;;5.70;99.90;;;;;;5075836;28;20194;-63
2023/01/24 05:11:36;;;;;;;14.97;9.60;;;5.80;99.90;;;;;;5075863;28;20205;-63
2023/01/24 05:14:01;;;;;;;16.70;12.57;;;5.80;99.90;;;;;;5073728;28;20214;-64
2023/01/24 05:16:27;;;;;;;16.53;11.03;;;5.80;99.90;;;;;;5069348;28;20646;-64
2023/01/24 05:18:53;;;;;;;17.30;10.87;;;5.80;99.90;;;;;;5077318;28;20417;-63
2023/01/24 05:21:18;;;;;;;17.10;10.83;;;5.80;99.90;;;;;;5074156;28;20587;-63
2023/01/24 05:23:50;;;;;;;16.40;9.20;;;5.80;99.90;;;;;;5072636;28;20587;-64
2023/01/24 05:26:15;;;;;;;14.20;9.70;;;5.80;99.90;;;;;;5076349;28;20220;-63
2023/01/24 05:28:41;;;;;;;19.00;10.47;;;5.80;99.90;;;;;;5059763;28;20424;-63
2023/01/24 05:31:09;;;;;;;16.50;10.73;;;5.80;99.90;;;;;;5074003;28;20197;-63
2023/01/24 05:33:36;;;;;;;16.90;10.43;;;5.70;99.90;;;;;;5059355;28;20194;-64
2023/01/24 05:36:07;;;;;;;14.03;10.27;;;5.70;99.90;;;;;;5071759;28;20838;-64
2023/01/24 05:38:33;;;;;;;16.37;10.50;;;5.80;99.90;;;;;;5054836;28;20424;-63
2023/01/24 05:41:01;;;;;;;16.20;9.90;;;5.70;99.90;;;;;;5058149;28;20808;-64
2023/01/24 05:43:26;;;;;;;17.23;10.37;;;5.80;99.90;;;;;;5073165;28;20566;-64
2023/01/24 05:46:00;;;;;;;15.77;10.90;;;5.80;99.90;;;;;;5070339;28;20519;-64
2023/01/24 05:48:27;;;;;;;15.57;10.60;;;5.80;99.90;;;;;;5058079;28;20182;-63
2023/01/24 05:50:57;;;;;;;15.00;10.43;;;5.80;99.90;;;;;;5075473;28;20498;-64
2023/01/24 05:53:23;;;;;;;15.83;11.10;;;5.80;99.90;;;;;;5059962;28;20425;-64
2023/01/24 05:55:54;;;;;;;18.10;11.43;;;5.80;99.90;;;;;;5079160;28;21329;-63
2023/01/24 05:58:20;;;;;;;16.57;10.90;;;5.80;99.90;;;;;;5057613;28;20508;-63
2023/01/24 06:00:46;;;;;;;15.93;10.53;;;5.80;99.90;;;;;;5080310;28;20980;-63
2023/01/24 06:03:11;;;;;;;16.63;10.93;;;5.70;99.90;;;;;;5076366;28;20853;-64
2023/01/24 06:05:37;;;;;;;18.77;11.90;;;5.70;99.90;;;;;;5078105;28;20235;-64
2023/01/24 06:08:02;;;;;;;16.63;11.10;;;5.70;99.90;;;;;;5074699;28;20194;-64
2023/01/24 06:10:28;;;;;;;15.73;10.10;;;5.70;99.90;;;;;;5080081;28;20186;-64
2023/01/24 06:12:53;;;;;;;14.00;10.53;;;5.70;99.90;;;;;;5076313;28;20185;-63
2023/01/24 06:15:19;;;;;;;17.23;11.20;;;5.70;99.90;;;;;;5056847;28;20187;-63
2023/01/24 06:17:44;;;;;;;17.43;10.83;;;5.70;99.90;;;;;;5074229;28;20218;-63
2023/01/24 06:20:11;;;;;;;14.50;10.87;;;5.80;99.90;;;;;;5080368;28;20791;-64
2023/01/24 06:22:45;;;;;;;17.90;11.80;;;5.70;99.90;;;;;;5073078;28;20231;-63
2023/01/24 06:25:23;;;;;;;16.67;10.83;;;5.80;99.90;;;;;;5059294;28;20448;-63
2023/01/24 06:27:49;;;;;;;17.30;11.37;;;5.70;99.90;;;;;;5075950;28;20458;-64
2023/01/24 06:30:16;;;;;;;21.10;11.80;;;5.80;99.90;;;;;;5073719;28;20424;-64
2023/01/24 06:33:02;;;;;;;15.80;10.07;;;5.80;99.90;;;;;;5075593;28;20424;-64
2023/01/24 06:36:15;;;;;;;17.60;11.40;;;5.70;99.90;;;;;;5072775;28;20424;-63
2023/01/24 06:38:41;;;;;;;15.90;10.03;;;5.80;99.90;;;;;;5012164;28;20518;-64
2023/01/24 06:41:15;;;;;;;14.47;11.00;;;5.70;99.90;;;;;;5013280;28;20438;-64
2023/01/24 06:43:41;;;;;;;17.37;10.70;;;5.80;99.90;;;;;;5028975;28;20189;-63
2023/01/24 06:46:08;;;;;;;15.77;10.40;;;5.80;99.90;;;;;;5072587;28;20473;-63
2023/01/24 06:48:34;;;;;;;16.30;11.27;;;5.70;99.90;;;;;;5076136;28;20457;-63
2023/01/24 06:51:00;;;;;;;15.77;10.27;;;5.70;99.90;;;;;;5074258;28;20459;-63
2023/01/24 06:53:26;;;;;;;17.50;11.33;;;5.70;99.90;;;;;;5056792;28;20291;-64
2023/01/24 06:55:51;;;;;;;20.23;11.00;;;5.70;99.90;;;;;;5058460;28;20892;-63
2023/01/24 06:58:17;;;;;;;18.20;10.77;;;5.70;99.90;;;;;;5071252;28;20171;-64
2023/01/24 07:00:42;;;;;;;19.67;12.13;;;5.70;99.90;;;;;;5075424;28;20174;-64
2023/01/24 07:03:08;;;;;;;18.10;10.47;;;5.70;99.90;;;;;;5073742;28;20299;-64
2023/01/24 07:05:35;;;;;;;19.17;11.53;;;5.70;99.90;;;;;;5072466;28;20227;-64
2023/01/24 07:08:02;;;;;;;22.13;11.03;;;5.70;99.90;;;;;;5073006;28;21089;-63
2023/01/24 07:10:28;;;;;;;17.40;11.13;;;5.80;99.90;;;;;;5071747;28;21143;-63
2023/01/24 07:12:54;;;;;;;17.00;11.20;;;5.80;99.90;;;;;;5073139;28;20504;-63
2023/01/24 07:15:20;;;;;;;17.87;12.33;;;5.80;99.90;;;;;;5076483;28;20895;-63
2023/01/24 07:17:45;;;;;;;18.47;10.63;;;5.80;99.90;;;;;;5062814;28;20464;-63
2023/01/24 07:20:12;;;;;;;16.90;11.33;;;5.80;99.90;;;;;;5060875;28;20260;-63
2023/01/24 07:22:39;;;;;;;15.83;11.37;;;5.80;99.90;;;;;;5075049;28;20186;-63
2023/01/24 07:25:15;;;;;;;19.07;11.73;;;5.80;99.90;;;;;;5073130;28;20428;-64
2023/01/24 07:27:45;;;;;;;15.50;10.40;;;5.80;99.90;;;;;;5074768;28;20444;-63
2023/01/24 07:30:12;;;;;;;18.73;12.53;;;5.80;99.90;;;;;;5078382;28;20503;-63
2023/01/24 07:32:38;;;;;;;18.20;12.10;;;5.80;99.90;;;;;;5077351;28;20443;-63
2023/01/24 07:35:05;;;;;;;16.33;12.40;;;5.80;99.90;;;;;;5071605;28;20464;-63
2023/01/24 07:37:31;;;;;;;18.40;11.63;;;5.80;99.90;;;;;;5069819;28;20479;-63
2023/01/24 07:39:56;;;;;;;20.63;11.57;;;5.80;99.90;;;;;;5074202;28;20432;-63
2023/01/24 07:42:22;;;;;;;17.50;11.80;;;5.80;99.90;;;;;;5077803;28;20222;-64
2023/01/24 07:44:48;;;;;;;17.73;10.80;;;5.80;99.90;;;;;;5075649;28;20224;-63
2023/01/24 07:47:13;;;;;;;18.67;11.07;;;5.80;99.90;;;;;;5058453;28;20218;-63
2023/01/24 07:49:39;;;;;;;14.27;9.97;;;5.90;99.90;;;;;;5057547;28;20840;-63
2023/01/24 07:52:04;;;;;;;18.53;11.50;;;5.90;99.90;;;;;;5079024;28;20710;-63
2023/01/24 07:54:30;;;;;;;18.77;11.70;;;5.90;99.90;;;;;;5075171;28;20197;-63
2023/01/24 07:56:56;;;;;;;17.67;11.90;;;5.90;99.90;;;;;;5074892;28;20223;-63
2023/01/24 07:59:21;;;;;;;18.37;11.70;;;5.90;99.90;;;;;;5071188;28;20611;-63
2023/01/24 08:01:47;;;;;;;20.77;12.10;;;5.90;99.90;;;;;;5074851;28;20184;-63
2023/01/24 08:04:12;;;;;;;20.23;12.20;;;5.90;99.90;;;;;;5074209;28;20213;-63
2023/01/24 08:07:23;;;;;;;15.73;10.47;;;5.90;99.90;;;;;;5074054;28;20585;-63
2023/01/24 08:09:30;;;;;;;16.70;12.13;;;5.90;99.90;;;;;;5064419;28;20297;-63
2023/01/24 08:11:56;;;;;;;20.13;11.67;;;5.90;99.90;;;;;;5070423;28;20444;-64
2023/01/24 08:14:21;;;;;;;15.90;10.50;;;5.90;99.90;;;;;;5074415;28;20702;-63
2023/01/24 08:16:48;;;;;;;16.40;11.10;;;6.00;99.90;;;;;;5077282;28;20209;-63
2023/01/24 08:19:13;;;;;;;16.03;11.90;;;6.00;99.90;;;;;;5077196;28;20213;-63
2023/01/24 08:21:39;;;;;;;19.70;11.47;;;6.00;99.90;;;;;;5076836;28;20516;-63
2023/01/24 08:24:05;;;;;;;18.57;12.20;;;6.00;99.90;;;;;;5078531;28;20632;-63
2023/01/24 08:26:30;;;;;;;19.53;11.67;;;6.00;99.90;;;;;;5075101;28;20335;-63
2023/01/24 08:28:56;;;;;;;15.87;10.67;;;6.00;99.90;;;;;;5076980;28;20446;-64
2023/01/24 08:31:21;;;;;;;17.50;11.73;;;6.00;99.90;;;;;;5055410;28;20269;-63
2023/01/24 08:33:47;;;;;;;17.93;11.73;;;6.00;99.90;;;;;;5076454;28;20182;-64
2023/01/24 08:36:12;;;;;;;19.30;12.00;;;6.10;99.90;;;;;;5073682;28;20218;-64
2023/01/24 08:38:38;;;;;;;17.60;12.07;;;6.10;99.90;;;;;;5074029;28;20186;-64
2023/01/24 08:41:04;;;;;;;17.47;11.30;;;6.10;99.90;;;;;;5080099;28;20174;-63
2023/01/24 08:43:30;;;;;;;17.90;12.10;;;6.10;99.90;;;;;;5072666;28;20186;-64
2023/01/24 08:45:56;;;;;;;18.00;11.40;;;6.10;99.90;;;;;;5078510;28;20489;-63
2023/01/24 08:48:21;;;;;;;20.50;13.60;;;6.00;99.90;;;;;;5076830;28;20425;-64
2023/01/24 08:50:47;;;;;;;17.60;12.27;;;6.10;99.90;;;;;;5079720;28;20818;-63
2023/01/24 08:53:14;;;;;;;17.27;11.33;;;6.10;99.90;;;;;;5073997;28;20192;-63
2023/01/24 08:55:40;;;;;;;16.73;10.47;;;6.10;99.90;;;;;;5072842;28;20291;-64
2023/01/24 08:58:06;;;;;;;18.33;11.40;;;6.10;99.90;;;;;;5067050;28;20425;-64
2023/01/24 09:00:32;;;;;;;19.00;11.53;;;6.10;99.90;;;;;;5072280;28;20214;-64
2023/01/24 09:03:00;;;;;;;15.40;10.87;;;6.20;99.90;;;;;;5076390;28;20450;-64
2023/01/24 09:05:26;;;;;;;16.33;9.90;;;6.20;99.90;;;;;;5078149;28;20576;-64
2023/01/24 09:07:52;;;;;;;17.50;9.50;;;6.20;99.90;;;;;;5077101;28;20815;-63
2023/01/24 09:10:17;;;;;;;20.73;12.00;;;6.20;99.90;;;;;;5076644;28;20436;-64
2023/01/24 09:12:43;;;;;;;16.03;11.30;;;6.20;99.90;;;;;;5071431;28;20182;-64
2023/01/24 09:15:09;;;;;;;19.43;12.00;;;6.20;99.90;;;;;;5071199;28;20190;-63
2023/01/24 09:17:36;;;;;;;16.67;10.40;;;6.30;99.90;;;;;;5073226;28;20267;-63
2023/01/24 09:20:01;;;;;;;19.47;12.53;;;6.30;99.90;;;;;;5074280;28;20908;-63
2023/01/24 09:22:27;;;;;;;17.70;10.60;;;6.20;99.90;;;;;;5054736;28;20501;-63
2023/01/24 09:24:53;;;;;;;19.00;11.50;;;6.30;99.90;;;;;;5073785;28;20273;-63
2023/01/24 09:27:19;;;;;;;19.97;12.83;;;6.30;99.90;;;;;;5074889;28;20456;-64
2023/01/24 09:29:44;;;;;;;19.50;11.50;;;6.30;99.90;;;;;;5068641;28;20186;-64
2023/01/24 09:32:10;;;;;;;15.17;10.43;;;6.30;99.90;;;;;;5070401;28;20746;-64
2023/01/24 09:34:35;;;;;;;17.13;12.37;;;6.30;99.90;;;;;;5059600;28;20195;-64
2023/01/24 09:37:01;;;;;;;15.40;10.60;;;6.30;99.90;;;;;;5075312;28;20214;-63
2023/01/24 09:39:26;;;;;;;18.40;12.30;;;6.30;99.90;;;;;;5075507;28;20186;-64
2023/01/24 09:42:00;;;;;;;18.50;11.50;;;6.40;99.90;;;;;;5058389;28;20193;-63
2023/01/24 09:44:50;;;;;;;19.20;13.93;;;6.40;99.90;;;;;;5073210;28;20182;-64
2023/01/24 09:47:23;;;;;;;21.30;12.37;;;6.40;99.90;;;;;;5073407;28;20439;-63
2023/01/24 09:49:51;;;;;;;17.77;11.40;;;6.40;99.90;;;;;;5074333;28;21080;-64
2023/01/24 09:52:27;;;;;;;16.93;10.90;;;6.40;99.90;;;;;;5073209;28;20784;-63
2023/01/24 09:55:03;;;;;;;18.43;11.63;;;6.40;99.90;;;;;;5073077;28;20430;-63
2023/01/24 09:58:01;;;;;;;15.67;11.13;;;6.40;99.90;;;;;;5052405;28;20535;-62
2023/01/24 10:00:37;;;;;;;17.27;11.27;;;6.40;99.90;;;;;;5034294;28;20432;-62
2023/01/24 10:03:18;;;;;;;17.70;12.23;;;6.40;99.90;;;;;;5069240;28;20455;-63
2023/01/24 10:05:48;;;;;;;13.27;10.20;;;6.30;99.90;;;;;;5076267;28;20435;-63
2023/01/24 10:08:30;;;;;;;17.83;11.80;;;6.40;99.90;;;;;;5075948;28;20412;-63
2023/01/24 10:11:41;;;;;;;17.23;11.67;;;6.40;99.90;;;;;;5052632;28;20440;-63
2023/01/24 10:14:32;;;;;;;21.23;11.80;;;6.40;99.90;;;;;;5065802;28;20409;-63
2023/01/24 10:17:25;;;;;;;17.13;11.30;;;6.50;99.90;;;;;;5063259;28;20467;-63
2023/01/24 10:20:17;;;;;;;20.47;12.07;;;6.50;99.90;;;;;;5066929;28;20522;-63
2023/01/24 10:23:04;;;;;;;17.73;11.30;;;6.50;99.90;;;;;;5072769;28;20498;-62
2023/01/24 10:25:44;;;;;;;22.07;13.17;;;6.50;99.90;;;;;;5071419;28;20447;-64
2023/01/24 10:28:21;;;;;;;15.90;10.77;;;6.50;99.90;;;;;;5075287;28;21281;-63
2023/01/24 10:30:57;;;;;;;17.27;11.80;;;6.50;99.90;;;;;;5055851;28;20502;-64
2023/01/24 10:33:30;;;;;;;16.90;11.87;;;6.60;99.90;;;;;;5072628;28;20412;-65
2023/01/24 10:36:03;;;;;;;17.93;12.43;;;6.60;99.90;;;;;;5070356;28;20516;-64
2023/01/24 10:38:29;;;;;;;16.00;11.90;;;6.60;99.90;;;;;;5069472;28;20806;-65
2023/01/24 10:41:09;;;;;;;16.53;11.77;;;6.60;99.90;;;;;;5059805;28;20420;-66
2023/01/24 10:43:37;;;;;;;19.07;11.37;;;6.60;99.90;;;;;;5073546;28;20178;-66
2023/01/24 10:46:15;;;;;;;18.57;11.57;;;6.60;99.90;;;;;;5078020;28;20468;-65
2023/01/24 10:48:53;;;;;;;16.37;11.60;;;6.70;99.90;;;;;;5077862;28;20524;-65
2023/01/24 10:51:21;;;;;;;17.07;11.20;;;6.70;99.90;;;;;;5077653;28;20424;-64
2023/01/24 10:53:48;;;;;;;15.83;10.23;;;6.70;99.90;;;;;;5076623;28;20425;-63
2023/01/24 10:56:16;;;;;;;16.10;10.63;;;6.70;99.90;;;;;;5075254;28;20484;-64
2023/01/24 10:58:54;;;;;;;15.87;11.03;;;6.70;99.90;;;;;;5073143;28;20814;-63
2023/01/24 11:01:33;;;;;;;17.00;10.43;;;6.70;99.90;;;;;;5071154;28;20439;-65
2023/01/24 11:03:59;;;;;;;14.13;10.87;;;6.70;99.90;;;;;;5074401;28;20892;-65
2023/01/24 11:06:27;;;;;;;15.07;9.63;;;6.70;99.90;;;;;;5078998;28;20535;-64
2023/01/24 11:09:00;;;;;;;15.57;10.83;;;6.80;99.90;;;;;;5074790;28;20437;-64
2023/01/24 11:11:29;;;;;;;15.13;10.90;;;6.70;99.90;;;;;;5071712;28;20531;-64
2023/01/24 11:13:58;;;;;;;20.63;12.13;;;6.80;99.90;;;;;;5078627;28;20433;-65
2023/01/24 11:16:30;;;;;;;21.40;12.10;;;6.80;99.90;;;;;;5077849;28;20489;-64
2023/01/24 11:19:01;;;;;;;17.97;11.33;;;6.90;99.90;;;;;;5076719;28;20972;-64
2023/01/24 11:21:30;;;;;;;17.00;11.23;;;6.90;99.90;;;;;;5078428;28;20436;-65
2023/01/24 11:24:22;;;;;;;17.07;10.77;;;6.90;99.90;;;;;;5079580;28;20785;-65
2023/01/24 11:26:54;;;;;;;14.20;10.47;;;7.00;99.90;;;;;;5072003;28;20468;-64
2023/01/24 11:29:20;;;;;;;16.10;11.57;;;7.00;99.90;;;;;;5075680;28;20425;-64
2023/01/24 11:32:09;;;;;;;16.90;11.70;;;7.00;99.90;;;;;;5076912;28;20417;-64
2023/01/24 11:34:46;;;;;;;18.97;10.87;;;7.10;99.90;;;;;;5075379;28;20857;-64
2023/01/24 11:37:35;;;;;;;13.73;9.80;;;7.10;99.90;;;;;;5076718;28;20518;-65
2023/01/24 11:40:04;;;;;;;15.60;10.27;;;7.10;99.90;;;;;;5077974;28;20948;-67
2023/01/24 11:42:37;;;;;;;13.37;10.27;;;7.10;99.90;;;;;;5078082;28;20425;-64
2023/01/24 11:45:21;;;;;;;13.27;9.97;;;7.00;99.90;;;;;;5075875;28;20460;-67
2023/01/24 11:48:05;;;;;;;14.90;10.60;;;7.00;99.90;;;;;;5075472;28;21073;-66
2023/01/24 11:50:41;;;;;;;14.13;9.33;;;7.00;99.90;;;;;;5056730;28;20964;-66
2023/01/24 11:53:12;;;;;;;12.87;9.77;;;7.10;99.90;;;;;;5075094;28;20495;-67
2023/01/24 11:55:46;;;;;;;13.63;10.20;;;7.10;99.90;;;;;;5058058;28;20842;-66
2023/01/24 11:58:36;;;;;;;19.87;12.70;;;7.10;99.90;;;;;;5074400;28;20435;-66
2023/01/24 12:01:25;;;;;;;16.03;10.87;;;7.00;99.90;;;;;;5053541;28;20519;-65
2023/01/24 12:04:06;;;;;;;14.80;9.83;;;7.10;99.90;;;;;;5072206;28;20439;-66
2023/01/24 12:07:01;;;;;;;13.37;8.70;;;7.10;99.90;;;;;;5071664;28;20448;-65
2023/01/24 12:09:34;;;;;;;13.50;10.50;;;7.10;99.90;;;;;;5058499;28;20440;-64
2023/01/24 12:12:14;;;;;;;31.20;19.17;;;7.10;99.90;;;;;;5077251;28;20436;-64
2023/01/24 12:14:48;;;;;;;23.20;16.50;;;7.10;99.90;;;;;;5072657;28;21253;-64
2023/01/24 12:17:26;;;;;;;15.27;8.93;;;7.10;99.90;;;;;;5078991;28;20896;-65
2023/01/24 12:20:29;;;;;;;17.90;10.70;;;7.10;99.90;;;;;;5073679;28;20892;-63
2023/01/24 12:22:56;;;;;;;15.53;10.23;;;7.10;99.90;;;;;;5072806;28;20437;-64
2023/01/24 12:25:41;;;;;;;14.27;10.00;;;7.10;99.90;;;;;;5076073;28;20870;-65
2023/01/24 12:28:14;;;;;;;11.67;8.80;;;7.10;99.90;;;;;;5074310;28;20428;-64
2023/01/24 12:30:42;;;;;;;13.53;8.90;;;7.10;99.90;;;;;;5075757;28;20429;-64
2023/01/24 12:33:34;;;;;;;13.90;10.00;;;7.10;99.90;;;;;;5077568;28;20428;-65
2023/01/24 12:36:12;;;;;;;12.50;9.03;;;7.10;99.90;;;;;;5076343;28;20462;-64
2023/01/24 12:38:43;;;;;;;15.43;9.90;;;7.10;99.90;;;;;;5077070;28;20423;-64
2023/01/24 12:41:27;;;;;;;12.53;8.53;;;7.20;99.90;;;;;;5076425;28;20435;-64
2023/01/24 12:44:33;;;;;;;11.13;8.70;;;7.20;99.90;;;;;;5054620;28;20468;-64
2023/01/24 12:47:14;;;;;;;14.70;9.90;;;7.20;99.90;;;;;;5074281;28;20460;-65
2023/01/24 12:50:04;;;;;;;12.70;8.87;;;7.20;99.90;;;;;;5078535;28;20474;-64
2023/01/24 12:53:06;;;;;;;17.90;10.30;;;7.20;99.90;;;;;;5059543;28;20423;-64
2023/01/24 12:55:47;;;;;;;14.30;9.10;;;7.20;99.90;;;;;;5042308;28;20524;-65
2023/01/24 12:58:26;;;;;;;12.67;9.50;;;7.20;99.90;;;;;;5076997;28;20412;-64
2023/01/24 13:01:07;;;;;;;17.60;11.93;;;7.20;99.90;;;;;;5075372;28;21015;-64
2023/01/24 13:04:02;;;;;;;14.97;9.97;;;7.10;99.90;;;;;;5072273;28;20448;-64
2023/01/24 13:06:52;;;;;;;12.70;9.00;;;7.10;99.90;;;;;;5058636;28;20452;-64
2023/01/24 13:09:34;;;;;;;17.57;10.00;;;7.10;99.90;;;;;;5070977;28;20438;-64
2023/01/24 13:12:03;;;;;;;14.50;9.50;;;7.10;99.90;;;;;;5071455;28;20834;-64
2023/01/24 13:14:40;;;;;;;12.67;9.10;;;7.10;99.90;;;;;;5070435;28;20416;-64
2023/01/24 13:17:21;;;;;;;16.37;9.90;;;7.10;99.90;;;;;;5076290;28;20478;-64
2023/01/24 13:20:22;;;;;;;14.00;9.00;;;7.00;99.90;;;;;;5072211;28;20428;-64
2023/01/24 13:23:12;;;;;;;15.90;8.80;;;7.00;99.90;;;;;;5074954;28;20901;-64
2023/01/24 13:26:06;;;;;;;15.90;9.50;;;7.10;99.90;;;;;;5071988;28;20930;-65
2023/01/24 13:29:03;;;;;;;12.23;9.07;;;7.10;99.90;;;;;;5071199;28;20421;-65
2023/01/24 13:31:50;;;;;;;19.83;10.80;;;7.10;99.90;;;;;;5068582;28;20409;-65
2023/01/24 13:34:20;;;;;;;15.57;9.93;;;7.10;99.90;;;;;;5074684;28;20429;-65